PST,Max TemperatureF,Mean TemperatureF,Min TemperatureF,Max Dew PointF,MeanDew PointF,Min DewpointF,Max Humidity, Mean Humidity, Min Humidity, Max Sea Level PressureIn, Mean Sea Level PressureIn, Min Sea Level PressureIn, Max VisibilityMiles, Mean VisibilityMiles, Min VisibilityMiles, Max Wind SpeedMPH, Mean Wind SpeedMPH, Max Gust SpeedMPH,PrecipitationIn, CloudCover, Events, WindDirDegrees
2012-11-1,57,40,23,37,31,22,92,65,38,30.12,30.00,29.88,10,10,10,17,6,23,T,3,,227
2012-11-2,56,39,22,34,28,20,96,66,35,30.21,30.14,30.10,10,10,10,8,3,15,0.00,1,,301
2012-11-3,64,48,31,38,33,27,85,59,33,30.27,30.19,30.12,10,10,7,12,3,13,0.00,4,,277
2012-11-4,63,46,29,42,37,28,100,74,47,30.48,30.40,30.26,10,10,10,7,2,9,0.00,2,,282
2012-11-5,67,48,28,44,35,27,100,71,42,30.51,30.41,30.30,10,7,0,8,2,9,0.00,1,Fog,283
2012-11-6,71,49,27,40,32,26,100,62,23,30.32,30.17,30.06,10,10,9,9,3,15,0.00,0,,346
2012-11-7,58,43,27,41,30,25,92,65,38,30.09,30.00,29.82,10,10,9,18,6,24,0.00,2,,270
2012-11-8,45,35,25,31,25,15,82,58,33,29.78,29.69,29.64,10,8,2,20,6,26,0.01,7,Snow,251
2012-11-9,39,28,17,27,21,15,92,72,52,29.85,29.80,29.71,10,9,6,14,6,21,0.01,6,,257
2012-11-10,36,22,8,22,14,3,92,70,47,30.25,30.06,29.84,10,7,0,14,6,16,T,2,Fog-Snow,252
2012-11-11,35,19,2,20,13,-1,95,74,52,30.47,30.39,30.14,10,10,2,9,3,13,0.00,3,,160
2012-11-12,34,29,24,32,29,20,96,87,78,30.42,30.33,30.27,10,5,0,7,2,9,0.14,8,Fog-Rain-Snow,43
2012-11-13,42,36,29,35,31,28,100,87,73,30.35,30.28,30.21,10,5,0,8,2,10,0.01,7,Fog-Rain-Snow,118
2012-11-14,43,34,24,36,28,21,100,88,76,30.35,30.26,30.20,10,4,0,7,2,9,0.00,5,Fog,184
2012-11-15,37,32,26,34,29,21,100,91,81,30.31,30.19,30.09,10,7,0,20,6,23,0.00,6,Fog,27
2012-11-16,55,42,28,38,33,27,92,68,44,30.08,30.01,29.93,10,10,5,17,4,23,T,6,Rain,113
2012-11-17,48,41,33,45,37,29,100,90,79,29.91,29.80,29.68,10,9,4,30,8,45,0.54,8,Rain-Snow,106
2012-11-18,43,34,24,32,28,23,92,75,57,30.05,30.01,29.91,10,10,10,24,5,29,0.00,4,,127
2012-11-19,49,42,34,35,32,26,75,66,56,30.09,30.01,29.93,10,10,10,23,10,31,T,6,Rain,140
2012-11-20,55,50,45,43,37,34,86,70,54,29.92,29.85,29.78,10,10,7,25,16,39,0.05,8,Rain,157
2012-11-21,44,36,28,34,28,24,92,69,45,30.33,30.10,29.86,10,10,10,25,11,30,0.03,5,Rain,236
2012-11-22,44,33,21,30,26,19,96,75,53,30.48,30.44,30.35,10,10,10,10,4,13,0.00,0,,64
2012-11-23,44,35,25,30,27,23,92,73,53,30.45,30.38,30.28,10,10,10,8,2,9,0.00,1,,267
2012-11-24,47,39,30,43,38,29,100,87,73,30.27,30.14,30.05,10,8,1,8,2,10,0.17,8,Rain,161
2012-11-25,42,32,21,37,28,18,100,76,51,30.26,30.17,30.07,10,10,9,10,4,13,0.00,3,,263
2012-11-26,41,30,18,29,23,16,92,76,59,30.29,30.24,30.19,10,10,9,16,5,20,0.00,0,,39
2012-11-27,37,27,17,30,24,16,92,84,76,30.28,30.22,30.16,10,10,9,7,1,7,0.00,0,,290
2012-11-28,40,30,20,35,29,18,96,80,64,30.15,30.00,29.91,10,10,9,14,3,17,0.02,4,Rain,65
2012-11-29,49,40,30,35,32,28,92,74,56,29.99,29.85,29.66,10,10,10,21,8,25,T,5,,92
2012-11-30,47,42,37,40,38,32,93,82,70,29.78,29.69,29.62,10,9,4,21,8,28,0.42,7,Rain,169